Aviation Digital Data Service (ADDS)

Output produced by METARs form (0137 UTC 29 May 2022)
found at http://www.aviationweather.gov/metar/data/
 
METAR text: RJAA 290100Z 23009KT 190V270 9999 FEW030 27/13 Q1005 NOSIG RMK 1CU030 A2969
Conditions at: RJAA (NARITA INTL , JP) observed 0100 UTC 29 May 2022
Temperature: 27.0°C (81°F)
Dewpoint: 13.0°C (55°F) [RH = 42%]
Pressure (altimeter): 29.68 inches Hg (1005.0 mb)
Winds: from the SW (230 degrees) at 10 MPH (9 knots; 4.6 m/s)
Visibility: 6 or more miles (10+ km)
Ceiling: at least 12,000 feet AGL
Clouds: few clouds at 3000 feet AGL
Weather: no significant weather observed at this time

METAR text: RJAA 290030Z 22007KT 190V260 9999 FEW030 26/14 Q1005 NOSIG RMK 1CU030 A2970
Conditions at: RJAA (NARITA INTL , JP) observed 0030 UTC 29 May 2022
Temperature: 26.0°C (79°F)
Dewpoint: 14.0°C (57°F) [RH = 48%]
Pressure (altimeter): 29.68 inches Hg (1005.0 mb)
Winds: from the SW (220 degrees) at 8 MPH (7 knots; 3.6 m/s)
Visibility: 6 or more miles (10+ km)
Ceiling: at least 12,000 feet AGL
Clouds: few clouds at 3000 feet AGL
Weather: no significant weather observed at this time

METAR text: RJAA 290000Z 22006KT 170V250 9999 FEW030 26/15 Q1005 BECMG 26006KT RMK 1CU030 A2970
Conditions at: RJAA (NARITA INTL , JP) observed 0000 UTC 29 May 2022
Temperature: 26.0°C (79°F)
Dewpoint: 15.0°C (59°F) [RH = 51%]
Pressure (altimeter): 29.68 inches Hg (1005.0 mb)
Winds: from the SW (220 degrees) at 7 MPH (6 knots; 3.1 m/s)
Visibility: 6 or more miles (10+ km)
Ceiling: at least 12,000 feet AGL
Clouds: few clouds at 3000 feet AGL
Weather: no significant weather observed at this time

METAR text: RJAA 282330Z 23005KT 180V280 9999 FEW030 25/15 Q1006 BECMG 26006KT RMK 1CU030 A2971
Conditions at: RJAA (NARITA INTL , JP) observed 2330 UTC 28 May 2022
Temperature: 25.0°C (77°F)
Dewpoint: 15.0°C (59°F) [RH = 54%]
Pressure (altimeter): 29.70 inches Hg (1006.0 mb)
Winds: from the SW (230 degrees) at 6 MPH (5 knots; 2.6 m/s)
Visibility: 6 or more miles (10+ km)
Ceiling: at least 12,000 feet AGL
Clouds: few clouds at 3000 feet AGL
Weather: no significant weather observed at this time

METAR text: RJAA 282300Z 22005KT 170V260 9999 FEW030 24/14 Q1006 BECMG 26006KT RMK 1CU030 A2971 MOD TURB OBS AT 2230Z AROUND MAMAS BTN FL300 AND FL260 IN DES B789 ANA9176
Conditions at: RJAA (NARITA INTL , JP) observed 2300 UTC 28 May 2022
Temperature: 24.0°C (75°F)
Dewpoint: 14.0°C (57°F) [RH = 54%]
Pressure (altimeter): 29.70 inches Hg (1006.0 mb)
Winds: from the SW (220 degrees) at 6 MPH (5 knots; 2.6 m/s)
Visibility: 6 or more miles (10+ km)
Ceiling: at least 12,000 feet AGL
Clouds: few clouds at 3000 feet AGL
Weather: no significant weather observed at this time

METAR text: RJAA 282230Z 19003KT 140V260 9999 FEW030 23/16 Q1006 BECMG 26006KT RMK 1CU030 A2971
Conditions at: RJAA (NARITA INTL , JP) observed 2230 UTC 28 May 2022
Temperature: 23.0°C (73°F)
Dewpoint: 16.0°C (61°F) [RH = 65%]
Pressure (altimeter): 29.70 inches Hg (1006.0 mb)
Winds: from the S (190 degrees) at 3 MPH (3 knots; 1.5 m/s)
Visibility: 6 or more miles (10+ km)
Ceiling: at least 12,000 feet AGL
Clouds: few clouds at 3000 feet AGL
Weather: no significant weather observed at this time

METAR text: RJAA 282200Z 16004KT 100V200 9999 FEW030 21/16 Q1006 BECMG 26006KT RMK 1CU030 A2971
Conditions at: RJAA (NARITA INTL , JP) observed 2200 UTC 28 May 2022
Temperature: 21.0°C (70°F)
Dewpoint: 16.0°C (61°F) [RH = 73%]
Pressure (altimeter): 29.70 inches Hg (1006.0 mb)
Winds: from the SSE (160 degrees) at 5 MPH (4 knots; 2.1 m/s)
Visibility: 6 or more miles (10+ km)
Ceiling: at least 12,000 feet AGL
Clouds: few clouds at 3000 feet AGL
Weather: no significant weather observed at this time

METAR text: RJAA 282130Z 16003KT 120V180 9999 FEW030 19/15 Q1005 NOSIG RMK 1CU030 A2970
Conditions at: RJAA (NARITA INTL , JP) observed 2130 UTC 28 May 2022
Temperature: 19.0°C (66°F)
Dewpoint: 15.0°C (59°F) [RH = 78%]
Pressure (altimeter): 29.68 inches Hg (1005.0 mb)
Winds: from the SSE (160 degrees) at 3 MPH (3 knots; 1.5 m/s)
Visibility: 6 or more miles (10+ km)
Ceiling: at least 12,000 feet AGL
Clouds: few clouds at 3000 feet AGL
Weather: no significant weather observed at this time

METAR text: RJAA 282100Z VRB02KT 9999 FEW030 18/15 Q1005 NOSIG RMK 1CU030 A2970
Conditions at: RJAA (NARITA INTL , JP) observed 2100 UTC 28 May 2022
Temperature: 18.0°C (64°F)
Dewpoint: 15.0°C (59°F) [RH = 83%]
Pressure (altimeter): 29.68 inches Hg (1005.0 mb)
Winds: variable direction winds at 2 MPH (2 knots; 1.0 m/s)
Visibility: 6 or more miles (10+ km)
Ceiling: at least 12,000 feet AGL
Clouds: few clouds at 3000 feet AGL
Weather: no significant weather observed at this time

METAR text: RJAA 282030Z AUTO 25003KT 210V280 9999 NCD 17/15 Q1005 NOSIG RMK A2969
Conditions at: RJAA (NARITA INTL , JP) observed 2030 UTC 28 May 2022
Temperature: 17.0°C (63°F)
Dewpoint: 15.0°C (59°F) [RH = 88%]
Pressure (altimeter): 29.68 inches Hg (1005.0 mb)
Winds: from the WSW (250 degrees) at 3 MPH (3 knots; 1.5 m/s)
Visibility: 6 or more miles (10+ km)
Ceiling: at least 12,000 feet AGL
Clouds: sky clear below 12,000 feet AGL
Weather: no significant weather observed at this time

METAR text: RJAA 282000Z AUTO VRB01KT 9999 NCD 14/13 Q1005 NOSIG RMK A2969
Conditions at: RJAA (NARITA INTL , JP) observed 2000 UTC 28 May 2022
Temperature: 14.0°C (57°F)
Dewpoint: 13.0°C (55°F) [RH = 94%]
Pressure (altimeter): 29.68 inches Hg (1005.0 mb)
Winds: variable direction winds at 1 MPH (1 knots; 0.5 m/s)
Visibility: 6 or more miles (10+ km)
Ceiling: at least 12,000 feet AGL
Clouds: sky clear below 12,000 feet AGL
Weather: no significant weather observed at this time

METAR text: RJAA 281930Z AUTO 12002KT 9999 NCD 13/13 Q1005 NOSIG RMK A2968
Conditions at: RJAA (NARITA INTL , JP) observed 1930 UTC 28 May 2022
Temperature: 13.0°C (55°F)
Dewpoint: 13.0°C (55°F) [RH = 100%]
Pressure (altimeter): 29.68 inches Hg (1005.0 mb)
Winds: from the ESE (120 degrees) at 2 MPH (2 knots; 1.0 m/s)
Visibility: 6 or more miles (10+ km)
Ceiling: at least 12,000 feet AGL
Clouds: sky clear below 12,000 feet AGL
Weather: no significant weather observed at this time

METAR text: RJAA 281900Z AUTO 21002KT 9999 NCD 13/13 Q1005 NOSIG RMK A2968
Conditions at: RJAA (NARITA INTL , JP) observed 1900 UTC 28 May 2022
Temperature: 13.0°C (55°F)
Dewpoint: 13.0°C (55°F) [RH = 100%]
Pressure (altimeter): 29.68 inches Hg (1005.0 mb)
Winds: from the SSW (210 degrees) at 2 MPH (2 knots; 1.0 m/s)
Visibility: 6 or more miles (10+ km)
Ceiling: at least 12,000 feet AGL
Clouds: sky clear below 12,000 feet AGL
Weather: no significant weather observed at this time

METAR text: RJAA 281830Z AUTO 22003KT 9999 NCD 14/13 Q1004 NOSIG RMK A2967
Conditions at: RJAA (NARITA INTL , JP) observed 1830 UTC 28 May 2022
Temperature: 14.0°C (57°F)
Dewpoint: 13.0°C (55°F) [RH = 94%]
Pressure (altimeter): 29.65 inches Hg (1004.0 mb)
Winds: from the SW (220 degrees) at 3 MPH (3 knots; 1.5 m/s)
Visibility: 6 or more miles (10+ km)
Ceiling: at least 12,000 feet AGL
Clouds: sky clear below 12,000 feet AGL
Weather: no significant weather observed at this time

METAR text: RJAA 281800Z AUTO 24003KT 210V290 9999 NCD 15/13 Q1005 NOSIG RMK A2968
Conditions at: RJAA (NARITA INTL , JP) observed 1800 UTC 28 May 2022
Temperature: 15.0°C (59°F)
Dewpoint: 13.0°C (55°F) [RH = 88%]
Pressure (altimeter): 29.68 inches Hg (1005.0 mb)
Winds: from the WSW (240 degrees) at 3 MPH (3 knots; 1.5 m/s)
Visibility: 6 or more miles (10+ km)
Ceiling: at least 12,000 feet AGL
Clouds: sky clear below 12,000 feet AGL
Weather: no significant weather observed at this time

METAR text: RJAA 281730Z AUTO 19003KT 160V220 9999 NCD 15/14 Q1004 NOSIG RMK A2967
Conditions at: RJAA (NARITA INTL , JP) observed 1730 UTC 28 May 2022
Temperature: 15.0°C (59°F)
Dewpoint: 14.0°C (57°F) [RH = 94%]
Pressure (altimeter): 29.65 inches Hg (1004.0 mb)
Winds: from the S (190 degrees) at 3 MPH (3 knots; 1.5 m/s)
Visibility: 6 or more miles (10+ km)
Ceiling: at least 12,000 feet AGL
Clouds: sky clear below 12,000 feet AGL
Weather: no significant weather observed at this time

METAR text: RJAA 281700Z AUTO 35003KT 310V030 9999 NCD 17/13 Q1004 NOSIG RMK A2966
Conditions at: RJAA (NARITA INTL , JP) observed 1700 UTC 28 May 2022
Temperature: 17.0°C (63°F)
Dewpoint: 13.0°C (55°F) [RH = 77%]
Pressure (altimeter): 29.65 inches Hg (1004.0 mb)
Winds: from the N (350 degrees) at 3 MPH (3 knots; 1.5 m/s)
Visibility: 6 or more miles (10+ km)
Ceiling: at least 12,000 feet AGL
Clouds: sky clear below 12,000 feet AGL
Weather: no significant weather observed at this time

METAR text: RJAA 281630Z AUTO 36004KT 310V030 9999 NCD 17/13 Q1004 NOSIG RMK A2966
Conditions at: RJAA (NARITA INTL , JP) observed 1630 UTC 28 May 2022
Temperature: 17.0°C (63°F)
Dewpoint: 13.0°C (55°F) [RH = 77%]
Pressure (altimeter): 29.65 inches Hg (1004.0 mb)
Winds: from the N (360 degrees) at 5 MPH (4 knots; 2.1 m/s)
Visibility: 6 or more miles (10+ km)
Ceiling: at least 12,000 feet AGL
Clouds: sky clear below 12,000 feet AGL
Weather: no significant weather observed at this time

METAR text: RJAA 281600Z AUTO 35005KT 310V030 9999 NCD 18/14 Q1004 NOSIG RMK A2967
Conditions at: RJAA (NARITA INTL , JP) observed 1600 UTC 28 May 2022
Temperature: 18.0°C (64°F)
Dewpoint: 14.0°C (57°F) [RH = 77%]
Pressure (altimeter): 29.65 inches Hg (1004.0 mb)
Winds: from the N (350 degrees) at 6 MPH (5 knots; 2.6 m/s)
Visibility: 6 or more miles (10+ km)
Ceiling: at least 12,000 feet AGL
Clouds: sky clear below 12,000 feet AGL
Weather: no significant weather observed at this time

METAR text: RJAA 281530Z AUTO 33004KT 9999 NCD 18/15 Q1004 NOSIG RMK A2966
Conditions at: RJAA (NARITA INTL , JP) observed 1530 UTC 28 May 2022
Temperature: 18.0°C (64°F)
Dewpoint: 15.0°C (59°F) [RH = 83%]
Pressure (altimeter): 29.65 inches Hg (1004.0 mb)
Winds: from the NNW (330 degrees) at 5 MPH (4 knots; 2.1 m/s)
Visibility: 6 or more miles (10+ km)
Ceiling: at least 12,000 feet AGL
Clouds: sky clear below 12,000 feet AGL
Weather: no significant weather observed at this time

METAR text: RJAA 281500Z AUTO 33006KT 9999 NCD 19/15 Q1004 NOSIG RMK A2966
Conditions at: RJAA (NARITA INTL , JP) observed 1500 UTC 28 May 2022
Temperature: 19.0°C (66°F)
Dewpoint: 15.0°C (59°F) [RH = 78%]
Pressure (altimeter): 29.65 inches Hg (1004.0 mb)
Winds: from the NNW (330 degrees) at 7 MPH (6 knots; 3.1 m/s)
Visibility: 6 or more miles (10+ km)
Ceiling: at least 12,000 feet AGL
Clouds: sky clear below 12,000 feet AGL
Weather: no significant weather observed at this time

METAR text: RJAA 281430Z AUTO 35006KT 9999 NCD 20/14 Q1004 NOSIG RMK A2966
Conditions at: RJAA (NARITA INTL , JP) observed 1430 UTC 28 May 2022
Temperature: 20.0°C (68°F)
Dewpoint: 14.0°C (57°F) [RH = 68%]
Pressure (altimeter): 29.65 inches Hg (1004.0 mb)
Winds: from the N (350 degrees) at 7 MPH (6 knots; 3.1 m/s)
Visibility: 6 or more miles (10+ km)
Ceiling: at least 12,000 feet AGL
Clouds: sky clear below 12,000 feet AGL
Weather: no significant weather observed at this time

METAR text: RJAA 281400Z AUTO 33003KT 290V010 9999 NCD 19/16 Q1004 NOSIG RMK A2966
Conditions at: RJAA (NARITA INTL , JP) observed 1400 UTC 28 May 2022
Temperature: 19.0°C (66°F)
Dewpoint: 16.0°C (61°F) [RH = 83%]
Pressure (altimeter): 29.65 inches Hg (1004.0 mb)
Winds: from the NNW (330 degrees) at 3 MPH (3 knots; 1.5 m/s)
Visibility: 6 or more miles (10+ km)
Ceiling: at least 12,000 feet AGL
Clouds: sky clear below 12,000 feet AGL
Weather: no significant weather observed at this time

METAR text: RJAA 281330Z 34003KT 300V010 9999 FEW030 BKN/// 19/17 Q1004 NOSIG
Conditions at: RJAA (NARITA INTL , JP) observed 1330 UTC 28 May 2022
Temperature: 19.0°C (66°F)
Dewpoint: 17.0°C (63°F) [RH = 88%]
Pressure (altimeter): 29.65 inches Hg (1004.0 mb)
Winds: from the NNW (340 degrees) at 3 MPH (3 knots; 1.5 m/s)
Visibility: 6 or more miles (10+ km)
Ceiling: at least 12,000 feet AGL
Clouds: few clouds at 3000 feet AGL
Weather: no significant weather observed at this time

METAR text: RJAA 281300Z VRB02KT 9999 FEW030 BKN/// 20/17 Q1004 NOSIG RMK 1CU030 A2965
Conditions at: RJAA (NARITA INTL , JP) observed 1300 UTC 28 May 2022
Temperature: 20.0°C (68°F)
Dewpoint: 17.0°C (63°F) [RH = 83%]
Pressure (altimeter): 29.65 inches Hg (1004.0 mb)
Winds: variable direction winds at 2 MPH (2 knots; 1.0 m/s)
Visibility: 6 or more miles (10+ km)
Ceiling: at least 12,000 feet AGL
Clouds: few clouds at 3000 feet AGL
Weather: no significant weather observed at this time

METAR text: RJAA 281230Z 02006KT 9999 FEW030 BKN/// 19/17 Q1003 NOSIG
Conditions at: RJAA (NARITA INTL , JP) observed 1230 UTC 28 May 2022
Temperature: 19.0°C (66°F)
Dewpoint: 17.0°C (63°F) [RH = 88%]
Pressure (altimeter): 29.62 inches Hg (1003.0 mb)
Winds: from the NNE (20 degrees) at 7 MPH (6 knots; 3.1 m/s)
Visibility: 6 or more miles (10+ km)
Ceiling: at least 12,000 feet AGL
Clouds: few clouds at 3000 feet AGL
Weather: no significant weather observed at this time

METAR text: RJAA 281200Z 01005KT 330V030 9999 FEW030 BKN/// 19/18 Q1003 NOSIG RMK 1CU030 A2964
Conditions at: RJAA (NARITA INTL , JP) observed 1200 UTC 28 May 2022
Temperature: 19.0°C (66°F)
Dewpoint: 18.0°C (64°F) [RH = 94%]
Pressure (altimeter): 29.62 inches Hg (1003.0 mb)
Winds: from the N (10 degrees) at 6 MPH (5 knots; 2.6 m/s)
Visibility: 6 or more miles (10+ km)
Ceiling: at least 12,000 feet AGL
Clouds: few clouds at 3000 feet AGL
Weather: no significant weather observed at this time

METAR text: RJAA 281130Z VRB01KT 9999 FEW030 BKN/// 18/18 Q1003 NOSIG
Conditions at: RJAA (NARITA INTL , JP) observed 1130 UTC 28 May 2022
Temperature: 18.0°C (64°F)
Dewpoint: 18.0°C (64°F) [RH = 100%]
Pressure (altimeter): 29.62 inches Hg (1003.0 mb)
Winds: variable direction winds at 1 MPH (1 knots; 0.5 m/s)
Visibility: 6 or more miles (10+ km)
Ceiling: at least 12,000 feet AGL
Clouds: few clouds at 3000 feet AGL
Weather: no significant weather observed at this time

METAR text: RJAA 281100Z 16003KT 9999 FEW030 SCT/// 19/18 Q1002 NOSIG RMK 1CU030 A2961
Conditions at: RJAA (NARITA INTL , JP) observed 1100 UTC 28 May 2022
Temperature: 19.0°C (66°F)
Dewpoint: 18.0°C (64°F) [RH = 94%]
Pressure (altimeter): 29.59 inches Hg (1002.0 mb)
Winds: from the SSE (160 degrees) at 3 MPH (3 knots; 1.5 m/s)
Visibility: 6 or more miles (10+ km)
Ceiling: at least 12,000 feet AGL
Clouds: few clouds at 3000 feet AGL
Weather: no significant weather observed at this time

METAR text: RJAA 281030Z 17004KT 9999 FEW030 BKN/// 19/17 Q1002 NOSIG RMK 1CU030 A2960
Conditions at: RJAA (NARITA INTL , JP) observed 1030 UTC 28 May 2022
Temperature: 19.0°C (66°F)
Dewpoint: 17.0°C (63°F) [RH = 88%]
Pressure (altimeter): 29.59 inches Hg (1002.0 mb)
Winds: from the S (170 degrees) at 5 MPH (4 knots; 2.1 m/s)
Visibility: 6 or more miles (10+ km)
Ceiling: at least 12,000 feet AGL
Clouds: few clouds at 3000 feet AGL
Weather: no significant weather observed at this time

METAR text: RJAA 281000Z 16004KT 9999 FEW030 BKN/// 19/17 Q1002 NOSIG RMK 1CU030 A2959
Conditions at: RJAA (NARITA INTL , JP) observed 1000 UTC 28 May 2022
Temperature: 19.0°C (66°F)
Dewpoint: 17.0°C (63°F) [RH = 88%]
Pressure (altimeter): 29.59 inches Hg (1002.0 mb)
Winds: from the SSE (160 degrees) at 5 MPH (4 knots; 2.1 m/s)
Visibility: 6 or more miles (10+ km)
Ceiling: at least 12,000 feet AGL
Clouds: few clouds at 3000 feet AGL
Weather: no significant weather observed at this time

METAR text: RJAA 280930Z 14007KT 9999 FEW030 BKN/// 20/18 Q1001 NOSIG RMK 1CU030 A2959
Conditions at: RJAA (NARITA INTL , JP) observed 0930 UTC 28 May 2022
Temperature: 20.0°C (68°F)
Dewpoint: 18.0°C (64°F) [RH = 88%]
Pressure (altimeter): 29.56 inches Hg (1001.0 mb)
Winds: from the SE (140 degrees) at 8 MPH (7 knots; 3.6 m/s)
Visibility: 6 or more miles (10+ km)
Ceiling: at least 12,000 feet AGL
Clouds: few clouds at 3000 feet AGL
Weather: no significant weather observed at this time

METAR text: RJAA 280900Z 14007KT 9999 FEW030 BKN/// 21/18 Q1001 NOSIG RMK 1CU030 A2958
Conditions at: RJAA (NARITA INTL , JP) observed 0900 UTC 28 May 2022
Temperature: 21.0°C (70°F)
Dewpoint: 18.0°C (64°F) [RH = 83%]
Pressure (altimeter): 29.56 inches Hg (1001.0 mb)
Winds: from the SE (140 degrees) at 8 MPH (7 knots; 3.6 m/s)
Visibility: 6 or more miles (10+ km)
Ceiling: at least 12,000 feet AGL
Clouds: few clouds at 3000 feet AGL
Weather: no significant weather observed at this time

METAR text: RJAA 280830Z 14009KT 9999 FEW030 BKN/// 22/18 Q1001 NOSIG RMK 1CU030 A2957
Conditions at: RJAA (NARITA INTL , JP) observed 0830 UTC 28 May 2022
Temperature: 22.0°C (72°F)
Dewpoint: 18.0°C (64°F) [RH = 78%]
Pressure (altimeter): 29.56 inches Hg (1001.0 mb)
Winds: from the SE (140 degrees) at 10 MPH (9 knots; 4.6 m/s)
Visibility: 6 or more miles (10+ km)
Ceiling: at least 12,000 feet AGL
Clouds: few clouds at 3000 feet AGL
Weather: no significant weather observed at this time

METAR text: RJAA 280800Z 12007KT 9999 FEW030 SCT/// 22/18 Q1001 NOSIG RMK 1CU030 A2957
Conditions at: RJAA (NARITA INTL , JP) observed 0800 UTC 28 May 2022
Temperature: 22.0°C (72°F)
Dewpoint: 18.0°C (64°F) [RH = 78%]
Pressure (altimeter): 29.56 inches Hg (1001.0 mb)
Winds: from the ESE (120 degrees) at 8 MPH (7 knots; 3.6 m/s)
Visibility: 6 or more miles (10+ km)
Ceiling: at least 12,000 feet AGL
Clouds: few clouds at 3000 feet AGL
Weather: no significant weather observed at this time

METAR text: RJAA 280730Z 15008KT 9999 FEW030 SCT070 24/16 Q1001 NOSIG RMK 1CU030 3AC070 A2957
Conditions at: RJAA (NARITA INTL , JP) observed 0730 UTC 28 May 2022
Temperature: 24.0°C (75°F)
Dewpoint: 16.0°C (61°F) [RH = 61%]
Pressure (altimeter): 29.56 inches Hg (1001.0 mb)
Winds: from the SSE (150 degrees) at 9 MPH (8 knots; 4.1 m/s)
Visibility: 6 or more miles (10+ km)
Ceiling: at least 12,000 feet AGL
Clouds: few clouds at 3000 feet AGL
scattered clouds at 7000 feet AGL
Weather: no significant weather observed at this time

METAR text: RJAA 280700Z 17008KT 9999 FEW030 SCT070 23/16 Q1001 NOSIG RMK 1CU030 3AC070 A2957
Conditions at: RJAA (NARITA INTL , JP) observed 0700 UTC 28 May 2022
Temperature: 23.0°C (73°F)
Dewpoint: 16.0°C (61°F) [RH = 65%]
Pressure (altimeter): 29.56 inches Hg (1001.0 mb)
Winds: from the S (170 degrees) at 9 MPH (8 knots; 4.1 m/s)
Visibility: 6 or more miles (10+ km)
Ceiling: at least 12,000 feet AGL
Clouds: few clouds at 3000 feet AGL
scattered clouds at 7000 feet AGL
Weather: no significant weather observed at this time

METAR text: RJAA 280630Z 15013KT 9999 FEW030 SCT060 BKN/// 24/16 Q1001 NOSIG RMK 1CU030 3SC060 A2956
Conditions at: RJAA (NARITA INTL , JP) observed 0630 UTC 28 May 2022
Temperature: 24.0°C (75°F)
Dewpoint: 16.0°C (61°F) [RH = 61%]
Pressure (altimeter): 29.56 inches Hg (1001.0 mb)
Winds: from the SSE (150 degrees) at 15 MPH (13 knots; 6.7 m/s)
Visibility: 6 or more miles (10+ km)
Ceiling: at least 12,000 feet AGL
Clouds: few clouds at 3000 feet AGL
scattered clouds at 6000 feet AGL
Weather: no significant weather observed at this time

METAR text: RJAA 280600Z 15013KT 9999 FEW030 SCT060 24/17 Q1001 NOSIG RMK 1CU030 4SC060 A2956
Conditions at: RJAA (NARITA INTL , JP) observed 0600 UTC 28 May 2022
Temperature: 24.0°C (75°F)
Dewpoint: 17.0°C (63°F) [RH = 65%]
Pressure (altimeter): 29.56 inches Hg (1001.0 mb)
Winds: from the SSE (150 degrees) at 15 MPH (13 knots; 6.7 m/s)
Visibility: 6 or more miles (10+ km)
Ceiling: at least 12,000 feet AGL
Clouds: few clouds at 3000 feet AGL
scattered clouds at 6000 feet AGL
Weather: no significant weather observed at this time

METAR text: RJAA 280530Z 17013KT 9999 FEW030 SCT060 BKN/// 24/16 Q1001 NOSIG RMK 1CU030 4SC060 A2956
Conditions at: RJAA (NARITA INTL , JP) observed 0530 UTC 28 May 2022
Temperature: 24.0°C (75°F)
Dewpoint: 16.0°C (61°F) [RH = 61%]
Pressure (altimeter): 29.56 inches Hg (1001.0 mb)
Winds: from the S (170 degrees) at 15 MPH (13 knots; 6.7 m/s)
Visibility: 6 or more miles (10+ km)
Ceiling: at least 12,000 feet AGL
Clouds: few clouds at 3000 feet AGL
scattered clouds at 6000 feet AGL
Weather: no significant weather observed at this time

METAR text: RJAA 280500Z 16014KT 9999 FEW030 BKN045 24/15 Q1000 NOSIG RMK 1CU030 5CU045 A2956
Conditions at: RJAA (NARITA INTL , JP) observed 0500 UTC 28 May 2022
Temperature: 24.0°C (75°F)
Dewpoint: 15.0°C (59°F) [RH = 57%]
Pressure (altimeter): 29.53 inches Hg (1000.0 mb)
Winds: from the SSE (160 degrees) at 16 MPH (14 knots; 7.2 m/s)
Visibility: 6 or more miles (10+ km)
Ceiling: 4500 feet AGL
Clouds: few clouds at 3000 feet AGL
broken clouds at 4500 feet AGL
Weather: no significant weather observed at this time

METAR text: RJAA 280430Z 16011KT 120V210 9999 FEW030 SCT060 25/16 Q1000 NOSIG RMK 1CU030 3SC060 A2955
Conditions at: RJAA (NARITA INTL , JP) observed 0430 UTC 28 May 2022
Temperature: 25.0°C (77°F)
Dewpoint: 16.0°C (61°F) [RH = 57%]
Pressure (altimeter): 29.53 inches Hg (1000.0 mb)
Winds: from the SSE (160 degrees) at 13 MPH (11 knots; 5.7 m/s)
Visibility: 6 or more miles (10+ km)
Ceiling: at least 12,000 feet AGL
Clouds: few clouds at 3000 feet AGL
scattered clouds at 6000 feet AGL
Weather: no significant weather observed at this time

METAR text: RJAA 280400Z 13012KT 9999 FEW030 SCT060 25/17 Q1000 NOSIG RMK 1CU030 3SC060 A2955
Conditions at: RJAA (NARITA INTL , JP) observed 0400 UTC 28 May 2022
Temperature: 25.0°C (77°F)
Dewpoint: 17.0°C (63°F) [RH = 61%]
Pressure (altimeter): 29.53 inches Hg (1000.0 mb)
Winds: from the SE (130 degrees) at 14 MPH (12 knots; 6.2 m/s)
Visibility: 6 or more miles (10+ km)
Ceiling: at least 12,000 feet AGL
Clouds: few clouds at 3000 feet AGL
scattered clouds at 6000 feet AGL
Weather: no significant weather observed at this time

METAR text: RJAA 280330Z 14008KT 100V180 9999 FEW030 SCT050 24/15 Q1000 NOSIG RMK 1CU030 4SC050 A2954
Conditions at: RJAA (NARITA INTL , JP) observed 0330 UTC 28 May 2022
Temperature: 24.0°C (75°F)
Dewpoint: 15.0°C (59°F) [RH = 57%]
Pressure (altimeter): 29.53 inches Hg (1000.0 mb)
Winds: from the SE (140 degrees) at 9 MPH (8 knots; 4.1 m/s)
Visibility: 6 or more miles (10+ km)
Ceiling: at least 12,000 feet AGL
Clouds: few clouds at 3000 feet AGL
scattered clouds at 5000 feet AGL
Weather: no significant weather observed at this time

METAR text: RJAA 280300Z 13009KT 9999 FEW030 BKN070 24/16 Q1000 NOSIG RMK 1CU030 5AC070 A2954
Conditions at: RJAA (NARITA INTL , JP) observed 0300 UTC 28 May 2022
Temperature: 24.0°C (75°F)
Dewpoint: 16.0°C (61°F) [RH = 61%]
Pressure (altimeter): 29.53 inches Hg (1000.0 mb)
Winds: from the SE (130 degrees) at 10 MPH (9 knots; 4.6 m/s)
Visibility: 6 or more miles (10+ km)
Ceiling: 7000 feet AGL
Clouds: few clouds at 3000 feet AGL
broken clouds at 7000 feet AGL
Weather: no significant weather observed at this time

METAR text: RJAA 280230Z VRB03KT 9999 FEW020 BKN040 26/16 Q1000 BECMG 28006KT RMK 1CU020 5CU040 A2954
Conditions at: RJAA (NARITA INTL , JP) observed 0230 UTC 28 May 2022
Temperature: 26.0°C (79°F)
Dewpoint: 16.0°C (61°F) [RH = 54%]
Pressure (altimeter): 29.53 inches Hg (1000.0 mb)
Winds: variable direction winds at 3 MPH (3 knots; 1.5 m/s)
Visibility: 6 or more miles (10+ km)
Ceiling: 4000 feet AGL
Clouds: few clouds at 2000 feet AGL
broken clouds at 4000 feet AGL
Weather: no significant weather observed at this time

METAR text: RJAA 280200Z VRB03KT 9999 FEW040 26/15 Q1000 BECMG 28006KT RMK 2CU040 A2955
Conditions at: RJAA (NARITA INTL , JP) observed 0200 UTC 28 May 2022
Temperature: 26.0°C (79°F)
Dewpoint: 15.0°C (59°F) [RH = 51%]
Pressure (altimeter): 29.53 inches Hg (1000.0 mb)
Winds: variable direction winds at 3 MPH (3 knots; 1.5 m/s)
Visibility: 6 or more miles (10+ km)
Ceiling: at least 12,000 feet AGL
Clouds: few clouds at 4000 feet AGL
Weather: no significant weather observed at this time

METAR text: RJAA 280130Z VRB04KT 9999 FEW020 26/15 Q1000 BECMG 25006KT RMK 1CU020 A2955
Conditions at: RJAA (NARITA INTL , JP) observed 0130 UTC 28 May 2022
Temperature: 26.0°C (79°F)
Dewpoint: 15.0°C (59°F) [RH = 51%]
Pressure (altimeter): 29.53 inches Hg (1000.0 mb)
Winds: variable direction winds at 5 MPH (4 knots; 2.1 m/s)
Visibility: 6 or more miles (10+ km)
Ceiling: at least 12,000 feet AGL
Clouds: few clouds at 2000 feet AGL
Weather: no significant weather observed at this time

METAR text: RJAA 280100Z 27005KT 180V340 9999 FEW020 24/15 Q1001 NOSIG RMK 1CU020 A2956
Conditions at: RJAA (NARITA INTL , JP) observed 0100 UTC 28 May 2022
Temperature: 24.0°C (75°F)
Dewpoint: 15.0°C (59°F) [RH = 57%]
Pressure (altimeter): 29.56 inches Hg (1001.0 mb)
Winds: from the W (270 degrees) at 6 MPH (5 knots; 2.6 m/s)
Visibility: 6 or more miles (10+ km)
Ceiling: at least 12,000 feet AGL
Clouds: few clouds at 2000 feet AGL
Weather: no significant weather observed at this time

METAR text: RJAA 280030Z 23006KT 170V260 9999 FEW015 24/15 Q1001 BECMG 26006KT RMK 1CU015 A2956
Conditions at: RJAA (NARITA INTL , JP) observed 0030 UTC 28 May 2022
Temperature: 24.0°C (75°F)
Dewpoint: 15.0°C (59°F) [RH = 57%]
Pressure (altimeter): 29.56 inches Hg (1001.0 mb)
Winds: from the SW (230 degrees) at 7 MPH (6 knots; 3.1 m/s)
Visibility: 6 or more miles (10+ km)
Ceiling: at least 12,000 feet AGL
Clouds: few clouds at 1500 feet AGL
Weather: no significant weather observed at this time

METAR text: RJAA 280000Z 19005KT 140V260 9999 FEW015 24/16 Q1000 NOSIG RMK 1CU015 A2955
Conditions at: RJAA (NARITA INTL , JP) observed 0000 UTC 28 May 2022
Temperature: 24.0°C (75°F)
Dewpoint: 16.0°C (61°F) [RH = 61%]
Pressure (altimeter): 29.53 inches Hg (1000.0 mb)
Winds: from the S (190 degrees) at 6 MPH (5 knots; 2.6 m/s)
Visibility: 6 or more miles (10+ km)
Ceiling: at least 12,000 feet AGL
Clouds: few clouds at 1500 feet AGL
Weather: no significant weather observed at this time

METAR text: RJAA 272330Z 20004KT 140V300 9999 FEW015 22/17 Q1000 NOSIG RMK 1CU015 A2955
Conditions at: RJAA (NARITA INTL , JP) observed 2330 UTC 27 May 2022
Temperature: 22.0°C (72°F)
Dewpoint: 17.0°C (63°F) [RH = 73%]
Pressure (altimeter): 29.53 inches Hg (1000.0 mb)
Winds: from the SSW (200 degrees) at 5 MPH (4 knots; 2.1 m/s)
Visibility: 6 or more miles (10+ km)
Ceiling: at least 12,000 feet AGL
Clouds: few clouds at 1500 feet AGL
Weather: no significant weather observed at this time

METAR text: RJAA 272300Z 21003KT 170V290 9999 FEW015 22/18 Q1000 NOSIG RMK 1CU015 A2955
Conditions at: RJAA (NARITA INTL , JP) observed 2300 UTC 27 May 2022
Temperature: 22.0°C (72°F)
Dewpoint: 18.0°C (64°F) [RH = 78%]
Pressure (altimeter): 29.53 inches Hg (1000.0 mb)
Winds: from the SSW (210 degrees) at 3 MPH (3 knots; 1.5 m/s)
Visibility: 6 or more miles (10+ km)
Ceiling: at least 12,000 feet AGL
Clouds: few clouds at 1500 feet AGL
Weather: no significant weather observed at this time

METAR text: RJAA 272230Z VRB02KT 9999 FEW015 SCT100 21/16 Q1000 NOSIG RMK 1CU015 4AC100 A2955
Conditions at: RJAA (NARITA INTL , JP) observed 2230 UTC 27 May 2022
Temperature: 21.0°C (70°F)
Dewpoint: 16.0°C (61°F) [RH = 73%]
Pressure (altimeter): 29.53 inches Hg (1000.0 mb)
Winds: variable direction winds at 2 MPH (2 knots; 1.0 m/s)
Visibility: 6 or more miles (10+ km)
Ceiling: at least 12,000 feet AGL
Clouds: few clouds at 1500 feet AGL
scattered clouds at 10000 feet AGL
Weather: no significant weather observed at this time

METAR text: RJAA 272200Z VRB02KT 9999 FEW015 BKN100 20/17 Q1000 NOSIG RMK 1CU015 6AC100 A2954
Conditions at: RJAA (NARITA INTL , JP) observed 2200 UTC 27 May 2022
Temperature: 20.0°C (68°F)
Dewpoint: 17.0°C (63°F) [RH = 83%]
Pressure (altimeter): 29.53 inches Hg (1000.0 mb)
Winds: variable direction winds at 2 MPH (2 knots; 1.0 m/s)
Visibility: 6 or more miles (10+ km)
Ceiling: 10000 feet AGL
Clouds: few clouds at 1500 feet AGL
broken clouds at 10000 feet AGL
Weather: no significant weather observed at this time

METAR text: RJAA 272130Z VRB01KT 9999 FEW015 BKN090 18/17 Q1000 NOSIG RMK 1CU015 6AC090 A2953
Conditions at: RJAA (NARITA INTL , JP) observed 2130 UTC 27 May 2022
Temperature: 18.0°C (64°F)
Dewpoint: 17.0°C (63°F) [RH = 94%]
Pressure (altimeter): 29.53 inches Hg (1000.0 mb)
Winds: variable direction winds at 1 MPH (1 knots; 0.5 m/s)
Visibility: 6 or more miles (10+ km)
Ceiling: 9000 feet AGL
Clouds: few clouds at 1500 feet AGL
broken clouds at 9000 feet AGL
Weather: no significant weather observed at this time

METAR text: RJAA 272100Z VRB01KT 9999 FEW015 BKN100 18/17 Q0999 NOSIG RMK 1CU015 6AC100 A2953
Conditions at: RJAA (NARITA INTL , JP) observed 2100 UTC 27 May 2022
Temperature: 18.0°C (64°F)
Dewpoint: 17.0°C (63°F) [RH = 94%]
Pressure (altimeter): 29.50 inches Hg (999.0 mb)
Winds: variable direction winds at 1 MPH (1 knots; 0.5 m/s)
Visibility: 6 or more miles (10+ km)
Ceiling: 10000 feet AGL
Clouds: few clouds at 1500 feet AGL
broken clouds at 10000 feet AGL
Weather: no significant weather observed at this time

METAR text: RJAA 272030Z AUTO VRB02KT 9999 NSC 17/16 Q0999 NOSIG RMK A2952
Conditions at: RJAA (NARITA INTL , JP) observed 2030 UTC 27 May 2022
Temperature: 17.0°C (63°F)
Dewpoint: 16.0°C (61°F) [RH = 94%]
Pressure (altimeter): 29.50 inches Hg (999.0 mb)
Winds: variable direction winds at 2 MPH (2 knots; 1.0 m/s)
Visibility: 6 or more miles (10+ km)
Ceiling: at least 12,000 feet AGL
Clouds: sky clear below 12,000 feet AGL
Weather: no significant weather observed at this time

METAR text: RJAA 272000Z AUTO VRB02KT 9999 R16R/P2000N R16L/P2000N NCD 16/16 Q0999 NOSIG RMK A2951
Conditions at: RJAA (NARITA INTL , JP) observed 2000 UTC 27 May 2022
Temperature: 16.0°C (61°F)
Dewpoint: 16.0°C (61°F) [RH = 100%]
Pressure (altimeter): 29.50 inches Hg (999.0 mb)
Winds: variable direction winds at 2 MPH (2 knots; 1.0 m/s)
Visibility: 6 or more miles (10+ km)
Ceiling: at least 12,000 feet AGL
Clouds: sky clear below 12,000 feet AGL
Weather: no significant weather observed at this time

METAR text: RJAA 271944Z AUTO VRB01KT 9999 R16R/P2000N R16L/0700VP2000D NSC 16/16 Q0999 RMK A2950
Conditions at: RJAA (NARITA INTL , JP) observed 1944 UTC 27 May 2022
Temperature: 16.0°C (61°F)
Dewpoint: 16.0°C (61°F) [RH = 100%]
Pressure (altimeter): 29.50 inches Hg (999.0 mb)
Winds: variable direction winds at 1 MPH (1 knots; 0.5 m/s)
Visibility: 6 or more miles (10+ km)
Ceiling: at least 12,000 feet AGL
Clouds: sky clear below 12,000 feet AGL
Weather: no significant weather observed at this time

METAR text: RJAA 271930Z AUTO VRB02KT 9999 R16R/P2000N R16L/P2000N NSC 16/15 Q0999 NOSIG RMK A2950
Conditions at: RJAA (NARITA INTL , JP) observed 1930 UTC 27 May 2022
Temperature: 16.0°C (61°F)
Dewpoint: 15.0°C (59°F) [RH = 94%]
Pressure (altimeter): 29.50 inches Hg (999.0 mb)
Winds: variable direction winds at 2 MPH (2 knots; 1.0 m/s)
Visibility: 6 or more miles (10+ km)
Ceiling: at least 12,000 feet AGL
Clouds: sky clear below 12,000 feet AGL
Weather: no significant weather observed at this time

METAR text: RJAA 271900Z AUTO VRB02KT 9999 NCD 16/16 Q0998 NOSIG RMK A2949
Conditions at: RJAA (NARITA INTL , JP) observed 1900 UTC 27 May 2022
Temperature: 16.0°C (61°F)
Dewpoint: 16.0°C (61°F) [RH = 100%]
Pressure (altimeter): 29.47 inches Hg (998.0 mb)
Winds: variable direction winds at 2 MPH (2 knots; 1.0 m/s)
Visibility: 6 or more miles (10+ km)
Ceiling: at least 12,000 feet AGL
Clouds: sky clear below 12,000 feet AGL
Weather: no significant weather observed at this time

METAR text: RJAA 271830Z AUTO 31004KT 6000 R16R/P2000N R16L/0600VP2000U NSC 17/17 Q0998 NOSIG RMK A2948
Conditions at: RJAA (NARITA INTL , JP) observed 1830 UTC 27 May 2022
Temperature: 17.0°C (63°F)
Dewpoint: 17.0°C (63°F) [RH = 100%]
Pressure (altimeter): 29.47 inches Hg (998.0 mb)
Winds: from the NW (310 degrees) at 5 MPH (4 knots; 2.1 m/s)
Visibility: 4 miles ( 6 km)
Ceiling: at least 12,000 feet AGL
Clouds: sky clear below 12,000 feet AGL
Weather: no significant weather observed at this time

METAR text: RJAA 271829Z AUTO 31004KT 6000 R16R/P2000N R16L/0600VP2000U NSC 17/17 Q0998 RMK A2948
Conditions at: RJAA (NARITA INTL , JP) observed 1829 UTC 27 May 2022
Temperature: 17.0°C (63°F)
Dewpoint: 17.0°C (63°F) [RH = 100%]
Pressure (altimeter): 29.47 inches Hg (998.0 mb)
Winds: from the NW (310 degrees) at 5 MPH (4 knots; 2.1 m/s)
Visibility: 4 miles ( 6 km)
Ceiling: at least 12,000 feet AGL
Clouds: sky clear below 12,000 feet AGL
Weather: no significant weather observed at this time

METAR text: RJAA 271827Z AUTO 31004KT 6000 R16R/P2000N R16L/0550VP2000U NSC 17/17 Q0998 RMK A2948
Conditions at: RJAA (NARITA INTL , JP) observed 1827 UTC 27 May 2022
Temperature: 17.0°C (63°F)
Dewpoint: 17.0°C (63°F) [RH = 100%]
Pressure (altimeter): 29.47 inches Hg (998.0 mb)
Winds: from the NW (310 degrees) at 5 MPH (4 knots; 2.1 m/s)
Visibility: 4 miles ( 6 km)
Ceiling: at least 12,000 feet AGL
Clouds: sky clear below 12,000 feet AGL
Weather: no significant weather observed at this time

METAR text: RJAA 271826Z AUTO 31004KT 6000 R16R/P2000N R16L/0550VP2000U NSC 17/17 Q0998 RMK A2948
Conditions at: RJAA (NARITA INTL , JP) observed 1826 UTC 27 May 2022
Temperature: 17.0°C (63°F)
Dewpoint: 17.0°C (63°F) [RH = 100%]
Pressure (altimeter): 29.47 inches Hg (998.0 mb)
Winds: from the NW (310 degrees) at 5 MPH (4 knots; 2.1 m/s)
Visibility: 4 miles ( 6 km)
Ceiling: at least 12,000 feet AGL
Clouds: sky clear below 12,000 feet AGL
Weather: no significant weather observed at this time

METAR text: RJAA 271825Z AUTO 31004KT 5000 R16R/P2000N R16L/0550VP2000U BR NSC 17/17 Q0998 RMK A2948
Conditions at: RJAA (NARITA INTL , JP) observed 1825 UTC 27 May 2022
Temperature: 17.0°C (63°F)
Dewpoint: 17.0°C (63°F) [RH = 100%]
Pressure (altimeter): 29.47 inches Hg (998.0 mb)
Winds: from the NW (310 degrees) at 5 MPH (4 knots; 2.1 m/s)
Visibility: 3 miles ( 5 km)
Ceiling: at least 12,000 feet AGL
Clouds: sky clear below 12,000 feet AGL
Weather: BR  (mist)

METAR text: RJAA 271821Z AUTO 32005KT 5000 R16R/P2000N R16L/0400V0800U BR NSC 17/17 Q0998 RMK A2948
Conditions at: RJAA (NARITA INTL , JP) observed 1821 UTC 27 May 2022
Temperature: 17.0°C (63°F)
Dewpoint: 17.0°C (63°F) [RH = 100%]
Pressure (altimeter): 29.47 inches Hg (998.0 mb)
Winds: from the NW (320 degrees) at 6 MPH (5 knots; 2.6 m/s)
Visibility: 3 miles ( 5 km)
Ceiling: at least 12,000 feet AGL
Clouds: sky clear below 12,000 feet AGL
Weather: BR  (mist)

METAR text: RJAA 271820Z AUTO 32005KT 5000 R16R/P2000N R16L/0400V0600U BR NSC 17/17 Q0998 RMK A2948
Conditions at: RJAA (NARITA INTL , JP) observed 1820 UTC 27 May 2022
Temperature: 17.0°C (63°F)
Dewpoint: 17.0°C (63°F) [RH = 100%]
Pressure (altimeter): 29.47 inches Hg (998.0 mb)
Winds: from the NW (320 degrees) at 6 MPH (5 knots; 2.6 m/s)
Visibility: 3 miles ( 5 km)
Ceiling: at least 12,000 feet AGL
Clouds: sky clear below 12,000 feet AGL
Weather: BR  (mist)

METAR text: RJAA 271814Z AUTO 32005KT 4700 R16R/2000N R16L/0400V0800D BR NSC 17/17 Q0998 RMK A2948
Conditions at: RJAA (NARITA INTL , JP) observed 1814 UTC 27 May 2022
Temperature: 17.0°C (63°F)
Dewpoint: 17.0°C (63°F) [RH = 100%]
Pressure (altimeter): 29.47 inches Hg (998.0 mb)
Winds: from the NW (320 degrees) at 6 MPH (5 knots; 2.6 m/s)
Visibility: 2.92 miles (4.70 km)
Ceiling: at least 12,000 feet AGL
Clouds: sky clear below 12,000 feet AGL
Weather: BR  (mist)

METAR text: RJAA 271808Z AUTO 32005KT 3600 R16R/2000N R16L/0550VP2000D BR NSC 17/17 Q0998 RMK A2948
Conditions at: RJAA (NARITA INTL , JP) observed 1808 UTC 27 May 2022
Temperature: 17.0°C (63°F)
Dewpoint: 17.0°C (63°F) [RH = 100%]
Pressure (altimeter): 29.47 inches Hg (998.0 mb)
Winds: from the NW (320 degrees) at 6 MPH (5 knots; 2.6 m/s)
Visibility: 2.24 miles (3.60 km)
Ceiling: at least 12,000 feet AGL
Clouds: sky clear below 12,000 feet AGL
Weather: BR  (mist)

METAR text: RJAA 271806Z AUTO 32005KT 3500 R16R/2000N R16L/0550VP2000D BR NSC 17/17 Q0998 RMK A2948
Conditions at: RJAA (NARITA INTL , JP) observed 1806 UTC 27 May 2022
Temperature: 17.0°C (63°F)
Dewpoint: 17.0°C (63°F) [RH = 100%]
Pressure (altimeter): 29.47 inches Hg (998.0 mb)
Winds: from the NW (320 degrees) at 6 MPH (5 knots; 2.6 m/s)
Visibility: 2.17 miles (3.49 km)
Ceiling: at least 12,000 feet AGL
Clouds: sky clear below 12,000 feet AGL
Weather: BR  (mist)

METAR text: RJAA 271805Z AUTO 32005KT 4000 R16R/1500VP2000N R16L/0550VP2000D BR NSC 17/17 Q0998 RMK A2947
Conditions at: RJAA (NARITA INTL , JP) observed 1805 UTC 27 May 2022
Temperature: 17.0°C (63°F)
Dewpoint: 17.0°C (63°F) [RH = 100%]
Pressure (altimeter): 29.47 inches Hg (998.0 mb)
Winds: from the NW (320 degrees) at 6 MPH (5 knots; 2.6 m/s)
Visibility: 2.49 miles (4.01 km)
Ceiling: at least 12,000 feet AGL
Clouds: sky clear below 12,000 feet AGL
Weather: BR  (mist)

METAR text: RJAA 271800Z AUTO 32004KT 4600 R16R/1000VP2000U R16L/0750VP2000U BR NSC 17/17 Q0998 BECMG 9999 NSW RMK A2947
Conditions at: RJAA (NARITA INTL , JP) observed 1800 UTC 27 May 2022
Temperature: 17.0°C (63°F)
Dewpoint: 17.0°C (63°F) [RH = 100%]
Pressure (altimeter): 29.47 inches Hg (998.0 mb)
Winds: from the NW (320 degrees) at 5 MPH (4 knots; 2.1 m/s)
Visibility: 2.86 miles (4.60 km)
Ceiling: at least 12,000 feet AGL
Clouds: sky clear below 12,000 feet AGL
Weather: BR  (mist)

METAR text: RJAA 271749Z AUTO 33005KT 6000 R16R/0800VP2000D R16L/0550V1800D FEW003 //////TCU 17/17 Q0998 RMK A2947 TCU 30KM SE MOV UNKNOWN
Conditions at: RJAA (NARITA INTL , JP) observed 1749 UTC 27 May 2022
Temperature: 17.0°C (63°F)
Dewpoint: 17.0°C (63°F) [RH = 100%]
Pressure (altimeter): 29.47 inches Hg (998.0 mb)
Winds: from the NNW (330 degrees) at 6 MPH (5 knots; 2.6 m/s)
Visibility: 4 miles ( 6 km)
Ceiling: at least 12,000 feet AGL
Clouds: few clouds at 300 feet AGL
Weather: no significant weather observed at this time

METAR text: RJAA 271747Z AUTO 33005KT 6000 R16R/0600VP2000D R16L/0550V1800D FEW003 SCT100 //////TCU 17/17 Q0998 RMK A2947 TCU 30KM SE MOV UNKNOWN
Conditions at: RJAA (NARITA INTL , JP) observed 1747 UTC 27 May 2022
Temperature: 17.0°C (63°F)
Dewpoint: 17.0°C (63°F) [RH = 100%]
Pressure (altimeter): 29.47 inches Hg (998.0 mb)
Winds: from the NNW (330 degrees) at 6 MPH (5 knots; 2.6 m/s)
Visibility: 4 miles ( 6 km)
Ceiling: at least 12,000 feet AGL
Clouds: few clouds at 300 feet AGL
scattered clouds at 10000 feet AGL
Weather: no significant weather observed at this time

METAR text: RJAA 271746Z AUTO 33005KT 7000 R16R/0550VP2000U R16L/0550V1800D FEW003 SCT100 //////TCU 17/17 Q0998 RMK A2947 TCU 30KM SE MOV UNKNOWN
Conditions at: RJAA (NARITA INTL , JP) observed 1746 UTC 27 May 2022
Temperature: 17.0°C (63°F)
Dewpoint: 17.0°C (63°F) [RH = 100%]
Pressure (altimeter): 29.47 inches Hg (998.0 mb)
Winds: from the NNW (330 degrees) at 6 MPH (5 knots; 2.6 m/s)
Visibility: 4 miles ( 7 km)
Ceiling: at least 12,000 feet AGL
Clouds: few clouds at 300 feet AGL
scattered clouds at 10000 feet AGL
Weather: no significant weather observed at this time

METAR text: RJAA 271737Z AUTO 33004KT 7000 R16R/0600VP2000D R16L/0900VP2000D FEW003 SCT080 BKN100 17/17 Q0998 RMK A2947
Conditions at: RJAA (NARITA INTL , JP) observed 1737 UTC 27 May 2022
Temperature: 17.0°C (63°F)
Dewpoint: 17.0°C (63°F) [RH = 100%]
Pressure (altimeter): 29.47 inches Hg (998.0 mb)
Winds: from the NNW (330 degrees) at 5 MPH (4 knots; 2.1 m/s)
Visibility: 4 miles ( 7 km)
Ceiling: 10000 feet AGL
Clouds: few clouds at 300 feet AGL
scattered clouds at 8000 feet AGL
broken clouds at 10000 feet AGL
Weather: no significant weather observed at this time

METAR text: RJAA 271735Z AUTO 33004KT 6000 R16R/1100VP2000D R16L/0900VP2000D FEW003 SCT080 BKN100 17/17 Q0998 RMK A2947
Conditions at: RJAA (NARITA INTL , JP) observed 1735 UTC 27 May 2022
Temperature: 17.0°C (63°F)
Dewpoint: 17.0°C (63°F) [RH = 100%]
Pressure (altimeter): 29.47 inches Hg (998.0 mb)
Winds: from the NNW (330 degrees) at 5 MPH (4 knots; 2.1 m/s)
Visibility: 4 miles ( 6 km)
Ceiling: 10000 feet AGL
Clouds: few clouds at 300 feet AGL
scattered clouds at 8000 feet AGL
broken clouds at 10000 feet AGL
Weather: no significant weather observed at this time

METAR text: RJAA 271732Z AUTO 33004KT 6000 R16R/P2000N R16L/0900VP2000D FEW003 SCT080 BKN090 17/17 Q0997 RMK A2947
Conditions at: RJAA (NARITA INTL , JP) observed 1732 UTC 27 May 2022
Temperature: 17.0°C (63°F)
Dewpoint: 17.0°C (63°F) [RH = 100%]
Pressure (altimeter): 29.44 inches Hg (997.0 mb)
Winds: from the NNW (330 degrees) at 5 MPH (4 knots; 2.1 m/s)
Visibility: 4 miles ( 6 km)
Ceiling: 9000 feet AGL
Clouds: few clouds at 300 feet AGL
scattered clouds at 8000 feet AGL
broken clouds at 9000 feet AGL
Weather: no significant weather observed at this time

METAR text: RJAA 271730Z AUTO 32004KT 5000 R16R/P2000N R16L/1200VP2000D BR FEW003 BKN080 BKN100 17/17 Q0997 NOSIG RMK A2947
Conditions at: RJAA (NARITA INTL , JP) observed 1730 UTC 27 May 2022
Temperature: 17.0°C (63°F)
Dewpoint: 17.0°C (63°F) [RH = 100%]
Pressure (altimeter): 29.44 inches Hg (997.0 mb)
Winds: from the NW (320 degrees) at 5 MPH (4 knots; 2.1 m/s)
Visibility: 3 miles ( 5 km)
Ceiling: 8000 feet AGL
Clouds: few clouds at 300 feet AGL
broken clouds at 8000 feet AGL
broken clouds at 10000 feet AGL
Weather: BR  (mist)

METAR text: RJAA 271726Z AUTO 32004KT 6000 FEW002 SCT005 BKN080 17/17 Q0997 RMK A2947
Conditions at: RJAA (NARITA INTL , JP) observed 1726 UTC 27 May 2022
Temperature: 17.0°C (63°F)
Dewpoint: 17.0°C (63°F) [RH = 100%]
Pressure (altimeter): 29.44 inches Hg (997.0 mb)
Winds: from the NW (320 degrees) at 5 MPH (4 knots; 2.1 m/s)
Visibility: 4 miles ( 6 km)
Ceiling: 8000 feet AGL
Clouds: few clouds at 200 feet AGL
scattered clouds at 500 feet AGL
broken clouds at 8000 feet AGL
Weather: no significant weather observed at this time

METAR text: RJAA 271721Z AUTO 32004KT 6000 BKN002 BKN005 BKN080 18/17 Q0998 RMK A2947
Conditions at: RJAA (NARITA INTL , JP) observed 1721 UTC 27 May 2022
Temperature: 18.0°C (64°F)
Dewpoint: 17.0°C (63°F) [RH = 94%]
Pressure (altimeter): 29.47 inches Hg (998.0 mb)
Winds: from the NW (320 degrees) at 5 MPH (4 knots; 2.1 m/s)
Visibility: 4 miles ( 6 km)
Ceiling: 200 feet AGL
Clouds: broken clouds at 200 feet AGL
broken clouds at 500 feet AGL
broken clouds at 8000 feet AGL
Weather: no significant weather observed at this time

METAR text: RJAA 271700Z AUTO 36005KT 6000 OVC003 18/18 Q0997 BECMG FEW020 RMK A2946
Conditions at: RJAA (NARITA INTL , JP) observed 1700 UTC 27 May 2022
Temperature: 18.0°C (64°F)
Dewpoint: 18.0°C (64°F) [RH = 100%]
Pressure (altimeter): 29.44 inches Hg (997.0 mb)
Winds: from the N (360 degrees) at 6 MPH (5 knots; 2.6 m/s)
Visibility: 4 miles ( 6 km)
Ceiling: 300 feet AGL
Clouds: overcast cloud deck at 300 feet AGL
Weather: no significant weather observed at this time

METAR text: RJAA 271633Z AUTO 02005KT 8000 BKN003 //////TCU 18/17 Q0997 RMK A2946 TCU 30KM NE MOV E
Conditions at: RJAA (NARITA INTL , JP) observed 1633 UTC 27 May 2022
Temperature: 18.0°C (64°F)
Dewpoint: 17.0°C (63°F) [RH = 94%]
Pressure (altimeter): 29.44 inches Hg (997.0 mb)
Winds: from the NNE (20 degrees) at 6 MPH (5 knots; 2.6 m/s)
Visibility: 5 miles ( 8 km)
Ceiling: 300 feet AGL
Clouds: broken clouds at 300 feet AGL
Weather: no significant weather observed at this time

METAR text: RJAA 271630Z AUTO 04004KT 010V070 9000 FEW003 SCT080 BKN090 //////TCU 18/17 Q0997 NOSIG RMK A2946 TCU 30KM NE MOV E
Conditions at: RJAA (NARITA INTL , JP) observed 1630 UTC 27 May 2022
Temperature: 18.0°C (64°F)
Dewpoint: 17.0°C (63°F) [RH = 94%]
Pressure (altimeter): 29.44 inches Hg (997.0 mb)
Winds: from the NE (40 degrees) at 5 MPH (4 knots; 2.1 m/s)
Visibility: 6 miles ( 9 km)
Ceiling: 9000 feet AGL
Clouds: few clouds at 300 feet AGL
scattered clouds at 8000 feet AGL
broken clouds at 9000 feet AGL
Weather: no significant weather observed at this time

METAR text: RJAA 271600Z AUTO 08005KT 9999 NSC 19/18 Q0997 BECMG 03004KT RMK A2945
Conditions at: RJAA (NARITA INTL , JP) observed 1600 UTC 27 May 2022
Temperature: 19.0°C (66°F)
Dewpoint: 18.0°C (64°F) [RH = 94%]
Pressure (altimeter): 29.44 inches Hg (997.0 mb)
Winds: from the E (80 degrees) at 6 MPH (5 knots; 2.6 m/s)
Visibility: 6 or more miles (10+ km)
Ceiling: at least 12,000 feet AGL
Clouds: sky clear below 12,000 feet AGL
Weather: no significant weather observed at this time

METAR text: RJAA 271530Z AUTO 07005KT 030V100 9999 FEW008 SCT038 BKN048 //////TCU 18/18 Q0997 BECMG 03004KT RMK A2945 TCU 20KM SE MOV UNKNOWN
Conditions at: RJAA (NARITA INTL , JP) observed 1530 UTC 27 May 2022
Temperature: 18.0°C (64°F)
Dewpoint: 18.0°C (64°F) [RH = 100%]
Pressure (altimeter): 29.44 inches Hg (997.0 mb)
Winds: from the ENE (70 degrees) at 6 MPH (5 knots; 2.6 m/s)
Visibility: 6 or more miles (10+ km)
Ceiling: 4800 feet AGL
Clouds: few clouds at 800 feet AGL
scattered clouds at 3800 feet AGL
broken clouds at 4800 feet AGL
Weather: no significant weather observed at this time

METAR text: RJAA 271505Z AUTO 02010KT 9999 -RA FEW003 SCT012 BKN034 //////CB 19/18 Q0997 RMK A2946 CB OHD MOV UNKNOWN
Conditions at: RJAA (NARITA INTL , JP) observed 1505 UTC 27 May 2022
Temperature: 19.0°C (66°F)
Dewpoint: 18.0°C (64°F) [RH = 94%]
Pressure (altimeter): 29.44 inches Hg (997.0 mb)
Winds: from the NNE (20 degrees) at 12 MPH (10 knots; 5.1 m/s)
Visibility: 6 or more miles (10+ km)
Ceiling: 3400 feet AGL
Clouds: few clouds at 300 feet AGL
scattered clouds at 1200 feet AGL
broken clouds at 3400 feet AGL
Weather: -RA  (light rain)

METAR text: RJAA 271500Z AUTO 01013KT 9999 -RA FEW003 SCT007 BKN012 //////CB 19/18 Q0997 TEMPO FEW003 BKN008 RMK A2946 CB OHD MOV UNKNOWN
Conditions at: RJAA (NARITA INTL , JP) observed 1500 UTC 27 May 2022
Temperature: 19.0°C (66°F)
Dewpoint: 18.0°C (64°F) [RH = 94%]
Pressure (altimeter): 29.44 inches Hg (997.0 mb)
Winds: from the N (10 degrees) at 15 MPH (13 knots; 6.7 m/s)
Visibility: 6 or more miles (10+ km)
Ceiling: 1200 feet AGL
Clouds: few clouds at 300 feet AGL
scattered clouds at 700 feet AGL
broken clouds at 1200 feet AGL
Weather: -RA  (light rain)

METAR text: RJAA 271446Z AUTO 01012KT 9999 -RA SCT003 BKN005 OVC009 //////TCU 19/19 Q0997 RMK A2946 TCU OHD MOV UNKNOWN
Conditions at: RJAA (NARITA INTL , JP) observed 1446 UTC 27 May 2022
Temperature: 19.0°C (66°F)
Dewpoint: 19.0°C (66°F) [RH = 100%]
Pressure (altimeter): 29.44 inches Hg (997.0 mb)
Winds: from the N (10 degrees) at 14 MPH (12 knots; 6.2 m/s)
Visibility: 6 or more miles (10+ km)
Ceiling: 500 feet AGL
Clouds: scattered clouds at 300 feet AGL
broken clouds at 500 feet AGL
overcast cloud deck at 900 feet AGL
Weather: -RA  (light rain)

METAR text: RJAA 271441Z AUTO 36012KT 3100 -RA BR OVC003 //////TCU 19/19 Q0997 RMK A2946 TCU OHD MOV UNKNOWN
Conditions at: RJAA (NARITA INTL , JP) observed 1441 UTC 27 May 2022
Temperature: 19.0°C (66°F)
Dewpoint: 19.0°C (66°F) [RH = 100%]
Pressure (altimeter): 29.44 inches Hg (997.0 mb)
Winds: from the N (360 degrees) at 14 MPH (12 knots; 6.2 m/s)
Visibility: 1.93 miles (3.11 km)
Ceiling: 300 feet AGL
Clouds: overcast cloud deck at 300 feet AGL
Weather: -RA BR  (light rain, mist)

METAR text: RJAA 271439Z AUTO 35012KT 3900 -RA BR BKN003 OVC006 //////CB 19/19 Q0997 RMK A2946 CB 35KM N MOV E TCU 5KM NW MOV UNKNOWN
Conditions at: RJAA (NARITA INTL , JP) observed 1439 UTC 27 May 2022
Temperature: 19.0°C (66°F)
Dewpoint: 19.0°C (66°F) [RH = 100%]
Pressure (altimeter): 29.44 inches Hg (997.0 mb)
Winds: from the N (350 degrees) at 14 MPH (12 knots; 6.2 m/s)
Visibility: 2.42 miles (3.89 km)
Ceiling: 300 feet AGL
Clouds: broken clouds at 300 feet AGL
overcast cloud deck at 600 feet AGL
Weather: -RA BR  (light rain, mist)

METAR text: RJAA 271435Z AUTO 35012KT 9999 -RA BKN003 OVC005 //////CB 19/19 Q0997 RMK A2946 CB 35KM N MOV E TCU 5KM NW MOV UNKNOWN
Conditions at: RJAA (NARITA INTL , JP) observed 1435 UTC 27 May 2022
Temperature: 19.0°C (66°F)
Dewpoint: 19.0°C (66°F) [RH = 100%]
Pressure (altimeter): 29.44 inches Hg (997.0 mb)
Winds: from the N (350 degrees) at 14 MPH (12 knots; 6.2 m/s)
Visibility: 6 or more miles (10+ km)
Ceiling: 300 feet AGL
Clouds: broken clouds at 300 feet AGL
overcast cloud deck at 500 feet AGL
Weather: -RA  (light rain)

METAR text: RJAA 271433Z AUTO 34010KT 9999 -RA SCT003 BKN005 OVC009 //////CB 19/19 Q0997 RMK A2947 CB 35KM N MOV E TCU 5KM NW MOV UNKNOWN
Conditions at: RJAA (NARITA INTL , JP) observed 1433 UTC 27 May 2022
Temperature: 19.0°C (66°F)
Dewpoint: 19.0°C (66°F) [RH = 100%]
Pressure (altimeter): 29.44 inches Hg (997.0 mb)
Winds: from the NNW (340 degrees) at 12 MPH (10 knots; 5.1 m/s)
Visibility: 6 or more miles (10+ km)
Ceiling: 500 feet AGL
Clouds: scattered clouds at 300 feet AGL
broken clouds at 500 feet AGL
overcast cloud deck at 900 feet AGL
Weather: -RA  (light rain)

METAR text: RJAA 271430Z AUTO 02004KT 9999 FEW003 BKN006 OVC009 //////CB 19/19 Q0998 NOSIG RMK A2947 CB 35KM N MOV E TCU 5KM NW MOV UNKNOWN
Conditions at: RJAA (NARITA INTL , JP) observed 1430 UTC 27 May 2022
Temperature: 19.0°C (66°F)
Dewpoint: 19.0°C (66°F) [RH = 100%]
Pressure (altimeter): 29.47 inches Hg (998.0 mb)
Winds: from the NNE (20 degrees) at 5 MPH (4 knots; 2.1 m/s)
Visibility: 6 or more miles (10+ km)
Ceiling: 600 feet AGL
Clouds: few clouds at 300 feet AGL
broken clouds at 600 feet AGL
overcast cloud deck at 900 feet AGL
Weather: no significant weather observed at this time

METAR text: RJAA 271429Z AUTO 03004KT 360V070 9999 FEW003 BKN006 OVC009 //////CB 19/19 Q0997 RMK A2947 CB 35KM N MOV E
Conditions at: RJAA (NARITA INTL , JP) observed 1429 UTC 27 May 2022
Temperature: 19.0°C (66°F)
Dewpoint: 19.0°C (66°F) [RH = 100%]
Pressure (altimeter): 29.44 inches Hg (997.0 mb)
Winds: from the NNE (30 degrees) at 5 MPH (4 knots; 2.1 m/s)
Visibility: 6 or more miles (10+ km)
Ceiling: 600 feet AGL
Clouds: few clouds at 300 feet AGL
broken clouds at 600 feet AGL
overcast cloud deck at 900 feet AGL
Weather: no significant weather observed at this time

METAR text: RJAA 271400Z AUTO 01007KT 9999 OVC003 //////CB 20/19 Q0997 NOSIG RMK A2946 CB 35KM N AND W MOV E
Conditions at: RJAA (NARITA INTL , JP) observed 1400 UTC 27 May 2022
Temperature: 20.0°C (68°F)
Dewpoint: 19.0°C (66°F) [RH = 94%]
Pressure (altimeter): 29.44 inches Hg (997.0 mb)
Winds: from the N (10 degrees) at 8 MPH (7 knots; 3.6 m/s)
Visibility: 6 or more miles (10+ km)
Ceiling: 300 feet AGL
Clouds: overcast cloud deck at 300 feet AGL
Weather: no significant weather observed at this time

Forecast for: AMD
Text: TAF AMD RJAA 290052Z 2900/3006 22008KT 9999 FEW030
Forecast period: 0000 to 0900 UTC 29 May 2022
Forecast type: FROM: standard forecast or significant change
Winds: from the SW (220 degrees) at 9 MPH (8 knots; 4.1 m/s)
Visibility: 6 or more miles (10+ km)
Ceiling: at least 12,000 feet AGL
Clouds: few clouds at 3000 feet AGL
Weather: no significant weather forecast for this period
Text: BECMG 2909/2911 26005KT
Forecast period: 0900 UTC 29 May 2022 to 0000 UTC 30 May 2022
Forecast type: BECOMING: Conditions expected to become as follows by 1100 UTC 29 May 2022
Winds: from the W (260 degrees) at 6 MPH (5 knots; 2.6 m/s)
Visibility: 6 or more miles (10+ km)
Ceiling: at least 12,000 feet AGL
Clouds: few clouds at 3000 feet AGL
Weather: no significant weather forecast for this period
Text: BECMG 3000/3003 08012KT
Forecast period: 0000 to 0600 UTC 30 May 2022
Forecast type: BECOMING: Conditions expected to become as follows by 0300 UTC 30 May 2022
Winds: from the E (80 degrees) at 14 MPH (12 knots; 6.2 m/s)
Visibility: 6 or more miles (10+ km)
Ceiling: at least 12,000 feet AGL
Clouds: few clouds at 3000 feet AGL
Weather: no significant weather forecast for this period